Current | Forecast
Updated: 5:30 PM +07 on October 19, 2017
Observed at Barnaul, Russia
Temperature 48°F
Humidity 71%
Dew Point 39°F
Wind SSE at 11 mph
Pressure 30.01 in (Steady)
Conditions Clear
Visibility -
UV N/A
Clouds
Yesterday's Maximum 52°F
Yesterday's Minimum 30°F approx.
Yesterday's Heating Degree Days 24 approx.
Sunrise7:03 AM +06
Sunset5:25 PM +06
Moon Rise6:00 AM +06
Moon Set5:42 PM +06
Moon PhaseMoon Phase
Waning Crescent
Raw METARMETAR UNBB 191030Z 16005MPS CAVOK 09/04 Q1016 R24/290150 NOSIG RMK QFE740


Monday
. High: 57° F.
Tuesday
. High: 64° F.
Wednesday
. High: 68° F.
Thursday
. High: 66° F.
Friday
. High: 69° F.
Saturday
. High: 73° F.
Sunday
. High: 78° F.
Monday
. High: 71° F.

Units: English | Metric

Find the Weather for any City, State or Zipcode, or Country:

U.S. State List | Severe Weather | Tropical Storms | Ski Conditions
United States | Canada | Central America | South America | Asia | Europe | Australia | Africa | Islands

Weather Underground

© Copyright 2017
The Weather Company, LLC